Terminal Aerodrome Forecast
Issued by NWS

Home | Current Version | Previous Version | Text Only | Print | Product List | Glossary On
Versions: 1 2 3 4 5 6 7 8 9 10 11 12
000
FTUS45 KRIW 272338
TAFWRL
TAF
KWRL 272338Z 2800/2824 03008KT P6SM VCSH SCT100
     FM280200 VRB12G20KT P6SM VCTS SCT090CB BKN120
     FM280800 VRB06KT P6SM VCSH SCT110
     FM282200 VRB12G20KT P6SM VCTS SCT110CB=

USA.gov is the U.S. government's official web portal to all federal, state and local government web resources and services.